Time;durP1;ratioP1;P1;durP2;ratioP2;P2;SDS_P1;SDS_P2;PMS_P1;PMS_P2;Temp;Humidity;BMP_temperature;BMP_pressure;BME280_temperature;BME280_humidity;BME280_pressure;Samples;Min_cycle;Max_cycle;Signal;HPM_P1;HPM_P2
2021/10/25 00:00:46;;;;;;;;;;;8.40;99.90;;;;;;8342953;28;19920;-72
2021/10/25 00:04:48;;;;;;;;;;;8.50;99.90;;;;;;8371667;28;19921;-73
2021/10/25 00:08:50;;;;;;;;;;;8.50;99.90;;;;;;8352625;28;19944;-72
2021/10/25 00:12:52;;;;;;;;;;;8.50;99.90;;;;;;8350984;28;19920;-72
2021/10/25 00:16:53;;;;;;;;;;;8.50;99.90;;;;;;8354262;28;19940;-72
2021/10/25 00:20:55;;;;;;;;;;;8.40;99.90;;;;;;8346001;28;19928;-72
2021/10/25 00:24:57;;;;;;;;;;;8.40;99.90;;;;;;8353215;28;19927;-72
2021/10/25 00:28:58;;;;;;;;;;;8.20;99.90;;;;;;8345469;28;19936;-72
2021/10/25 00:33:00;;;;;;;;;;;8.20;99.90;;;;;;8351810;28;19925;-73
2021/10/25 00:37:03;;;;;;;;;;;8.10;99.90;;;;;;8356781;28;19928;-73
2021/10/25 00:41:05;;;;;;;;;;;8.10;99.90;;;;;;8357008;28;20317;-72
2021/10/25 00:45:12;;;;;;;;;;;8.10;99.90;;;;;;8359720;28;19931;-72
2021/10/25 00:49:13;;;;;;;;;;;8.10;99.90;;;;;;8353040;28;20284;-72
2021/10/25 00:53:15;;;;;;;;;;;8.10;99.90;;;;;;8371893;28;20411;-72
2021/10/25 00:57:17;;;;;;;;;;;8.10;99.90;;;;;;8346581;28;20016;-72
2021/10/25 01:01:18;;;;;;;;;;;8.20;99.90;;;;;;8343937;28;19927;-72
2021/10/25 01:05:20;;;;;;;;;;;8.30;99.90;;;;;;8341714;28;19921;-72
2021/10/25 01:09:22;;;;;;;;;;;8.30;99.90;;;;;;8352418;28;19932;-72
2021/10/25 01:13:24;;;;;;;;;;;8.30;99.90;;;;;;8374954;28;20237;-72
2021/10/25 01:17:26;;;;;;;;;;;8.40;99.90;;;;;;8358811;28;19921;-72
2021/10/25 01:21:28;;;;;;;;;;;8.40;99.90;;;;;;8332504;28;19925;-72
2021/10/25 01:25:30;;;;;;;;;;;8.40;99.90;;;;;;8338119;28;19999;-72
2021/10/25 01:29:32;;;;;;;;;;;8.40;99.90;;;;;;8352980;28;19927;-72
2021/10/25 01:33:34;;;;;;;;;;;8.50;99.90;;;;;;8349713;28;19920;-73
2021/10/25 01:37:36;;;;;;;;;;;8.50;99.90;;;;;;8389263;28;19920;-73
2021/10/25 01:41:38;;;;;;;;;;;8.50;99.90;;;;;;8359220;28;19920;-72
2021/10/25 01:45:40;;;;;;;;;;;8.60;99.90;;;;;;8345003;28;20308;-73
2021/10/25 01:49:41;;;;;;;;;;;8.50;99.90;;;;;;8345492;28;19932;-72
2021/10/25 01:53:45;;;;;;;;;;;8.60;99.90;;;;;;8365194;28;19947;-72
2021/10/25 01:57:47;;;;;;;;;;;8.70;99.90;;;;;;8364778;28;20031;-72
2021/10/25 02:01:48;;;;;;;;;;;8.70;99.90;;;;;;8354918;28;19920;-72
2021/10/25 02:05:50;;;;;;;;;;;8.70;99.90;;;;;;8355699;28;19999;-72
2021/10/25 02:09:52;;;;;;;;;;;8.80;99.90;;;;;;8358725;28;20262;-72
2021/10/25 02:13:53;;;;;;;;;;;8.80;99.90;;;;;;8349236;28;19921;-72
2021/10/25 02:17:55;;;;;;;;;;;8.80;99.90;;;;;;8361475;28;19943;-73
2021/10/25 02:21:57;;;;;;;;;;;8.80;99.90;;;;;;8330677;28;19928;-72
2021/10/25 02:25:59;;;;;;;;;;;8.90;99.90;;;;;;8329104;28;19920;-72
2021/10/25 02:30:00;;;;;;;;;;;8.90;99.90;;;;;;8347469;28;20300;-72
2021/10/25 02:34:02;;;;;;;;;;;8.90;99.90;;;;;;8353017;28;19944;-72
2021/10/25 02:38:04;;;;;;;;;;;8.90;99.90;;;;;;8354426;28;19928;-72
2021/10/25 02:42:06;;;;;;;;;;;9.00;99.90;;;;;;8355604;28;20054;-72
2021/10/25 02:46:07;;;;;;;;;;;9.00;99.90;;;;;;8366981;28;19932;-72
2021/10/25 02:50:10;;;;;;;;;;;9.00;99.90;;;;;;8351730;28;19974;-72
2021/10/25 02:54:11;;;;;;;;;;;9.00;99.90;;;;;;8341008;28;19969;-72
2021/10/25 02:58:16;;;;;;;;;;;9.00;99.90;;;;;;8349993;28;19928;-72
2021/10/25 03:02:19;;;;;;;;;;;9.00;99.90;;;;;;8344496;28;19920;-72
2021/10/25 03:06:21;;;;;;;;;;;9.00;99.90;;;;;;8346825;28;19925;-73
2021/10/25 03:10:23;;;;;;;;;;;9.10;99.90;;;;;;8351009;28;19928;-73
2021/10/25 03:14:24;;;;;;;;;;;9.10;99.90;;;;;;8350231;28;19935;-72
2021/10/25 03:18:31;;;;;;;;;;;9.10;99.90;;;;;;8350855;28;20321;-73
2021/10/25 03:22:33;;;;;;;;;;;9.10;99.90;;;;;;8327784;28;19920;-72
2021/10/25 03:26:44;;;;;;;;;;;9.10;99.90;;;;;;8371009;28;19928;-72
2021/10/25 03:30:47;;;;;;;;;;;9.10;99.90;;;;;;8352075;28;19936;-72
2021/10/25 03:34:49;;;;;;;;;;;9.10;99.90;;;;;;8346306;28;19920;-73
2021/10/25 03:38:51;;;;;;;;;;;9.10;99.90;;;;;;8345148;28;19928;-72
2021/10/25 03:42:55;;;;;;;;;;;9.10;99.90;;;;;;8355679;28;19928;-72
2021/10/25 03:47:05;;;;;;;;;;;9.20;99.90;;;;;;8354369;28;20364;-72
2021/10/25 03:51:09;;;;;;;;;;;9.20;99.90;;;;;;8361216;28;20277;-72
2021/10/25 03:55:16;;;;;;;;;;;9.20;99.90;;;;;;8357066;28;19921;-72
2021/10/25 03:59:47;;;;;;;;;;;9.20;99.90;;;;;;8358549;28;19967;-72
2021/10/25 04:29:21;;;;;;;;;;;9.30;99.90;;;;;;8350396;28;20361;-72
2021/10/25 04:33:23;;;;;;;;;;;9.30;99.90;;;;;;8358034;28;19925;-72
2021/10/25 04:37:25;;;;;;;;;;;9.30;99.90;;;;;;8360307;28;20296;-72
2021/10/25 04:41:27;;;;;;;;;;;9.30;99.90;;;;;;8350143;28;19920;-72
2021/10/25 04:45:29;;;;;;;;;;;9.30;99.90;;;;;;8347189;28;19956;-72
2021/10/25 04:49:31;;;;;;;;;;;9.30;99.90;;;;;;8348150;28;19928;-72
2021/10/25 04:53:32;;;;;;;;;;;9.30;99.90;;;;;;8352047;28;20265;-72
2021/10/25 04:57:34;;;;;;;;;;;9.30;99.90;;;;;;8349618;28;19920;-72
2021/10/25 05:01:39;;;;;;;;;;;9.30;99.90;;;;;;8359463;28;19921;-72
2021/10/25 05:05:41;;;;;;;;;;;9.30;99.90;;;;;;8359832;28;19936;-73
2021/10/25 05:09:42;;;;;;;;;;;9.40;99.90;;;;;;8363491;28;20317;-72
2021/10/25 05:13:44;;;;;;;;;;;9.40;99.90;;;;;;8354805;28;19944;-72
2021/10/25 05:17:46;;;;;;;;;;;9.40;99.90;;;;;;8374630;28;20253;-72
2021/10/25 05:21:47;;;;;;;;;;;9.40;99.90;;;;;;8329255;28;19921;-72
2021/10/25 05:25:50;;;;;;;;;;;9.40;99.90;;;;;;8347301;28;19920;-72
2021/10/25 05:29:52;;;;;;;;;;;9.40;99.90;;;;;;8349167;28;19921;-72
2021/10/25 05:33:53;;;;;;;;;;;9.40;99.90;;;;;;8351146;28;20383;-72
2021/10/25 05:37:56;;;;;;;;;;;9.40;99.90;;;;;;8350363;28;19928;-72
2021/10/25 05:42:00;;;;;;;;;;;9.40;99.90;;;;;;8354780;28;20241;-73
2021/10/25 05:46:02;;;;;;;;;;;9.40;99.90;;;;;;8358791;28;19928;-72
2021/10/25 05:50:04;;;;;;;;;;;9.40;99.90;;;;;;8359968;28;19970;-72
2021/10/25 05:54:06;;;;;;;;;;;9.40;99.90;;;;;;8349379;28;19921;-72
2021/10/25 05:58:18;;;;;;;;;;;9.40;99.90;;;;;;8343641;28;19921;-72
2021/10/25 06:02:35;;;;;;;;;;;9.50;99.90;;;;;;8356322;28;19979;-72
2021/10/25 06:06:37;;;;;;;;;;;9.50;99.90;;;;;;8352389;28;19921;-72
2021/10/25 06:10:39;;;;;;;;;;;9.50;99.90;;;;;;8350083;28;19921;-72
2021/10/25 06:15:09;;;;;;;;;;;9.50;99.90;;;;;;8346871;28;19925;-72
2021/10/25 06:19:13;;;;;;;;;;;9.50;99.90;;;;;;8338057;28;19959;-72
2021/10/25 06:23:15;;;;;;;;;;;9.50;99.90;;;;;;8322231;28;20739;-72
2021/10/25 06:27:16;;;;;;;;;;;9.50;99.90;;;;;;8344462;28;19921;-72
2021/10/25 06:31:19;;;;;;;;;;;9.60;99.90;;;;;;8359467;28;19974;-72
2021/10/25 06:35:24;;;;;;;;;;;9.60;99.90;;;;;;8357179;28;19925;-72
2021/10/25 06:40:03;;;;;;;;;;;9.60;99.90;;;;;;8347471;28;19921;-73
2021/10/25 06:43:54;;;;;;;;;;;9.70;99.90;;;;;;8339272;28;19920;-72
2021/10/25 06:47:55;;;;;;;;;;;9.70;99.90;;;;;;8350340;28;20267;-72
2021/10/25 06:51:57;;;;;;;;;;;9.70;99.90;;;;;;8366328;28;19921;-73
2021/10/25 06:55:59;;;;;;;;;;;9.80;99.90;;;;;;8353544;28;19925;-72
2021/10/25 07:00:00;;;;;;;;;;;9.80;99.90;;;;;;8356572;28;20004;-72
2021/10/25 07:04:02;;;;;;;;;;;9.80;99.90;;;;;;8357572;28;20419;-72
2021/10/25 07:08:05;;;;;;;;;;;9.90;99.90;;;;;;8345759;28;19932;-73
2021/10/25 07:12:08;;;;;;;;;;;9.90;99.90;;;;;;8348127;28;19927;-73
2021/10/25 07:16:20;;;;;;;;;;;9.90;99.90;;;;;;8358198;28;19921;-73
2021/10/25 08:11:48;;;;;;;;;;;10.10;99.90;;;;;;8343634;28;19921;-72
2021/10/25 08:16:09;;;;;;;;;;;10.10;99.90;;;;;;8351939;28;19928;-73
2021/10/25 08:20:11;;;;;;;;;;;10.10;99.90;;;;;;8335737;28;19925;-73
2021/10/25 08:24:12;;;;;;;;;;;10.10;99.90;;;;;;8337264;28;20350;-73
2021/10/25 08:28:14;;;;;;;;;;;10.10;99.90;;;;;;8352071;28;19936;-73
2021/10/25 08:40:58;;;;;;;;;;;10.20;99.90;;;;;;8374669;28;19932;-73
2021/10/25 08:45:13;;;;;;;;;;;10.20;99.90;;;;;;8350896;28;19920;-73
2021/10/25 08:49:15;;;;;;;;;;;10.10;99.90;;;;;;8349619;28;19921;-73
2021/10/25 08:53:16;;;;;;;;;;;10.20;99.90;;;;;;8363811;28;20324;-73
2021/10/25 08:57:19;;;;;;;;;;;10.20;99.90;;;;;;8356556;28;19921;-73
2021/10/25 09:01:24;;;;;;;;;;;10.10;99.90;;;;;;8362051;28;19967;-73
2021/10/25 09:05:26;;;;;;;;;;;10.20;99.90;;;;;;8362256;28;19979;-73
2021/10/25 09:09:29;;;;;;;;;;;10.20;99.90;;;;;;8344277;28;19952;-73
2021/10/25 09:13:31;;;;;;;;;;;10.20;99.90;;;;;;8357381;28;20395;-73
2021/10/25 09:17:40;;;;;;;;;;;10.30;99.90;;;;;;8361284;28;19928;-73
2021/10/25 09:21:42;;;;;;;;;;;10.30;99.90;;;;;;8331024;28;19975;-73
2021/10/25 09:25:49;;;;;;;;;;;10.40;99.90;;;;;;8345530;28;19928;-72
2021/10/25 09:29:52;;;;;;;;;;;10.50;99.90;;;;;;8328564;28;20238;-72
2021/10/25 09:33:56;;;;;;;;;;;10.50;99.90;;;;;;8336253;28;19975;-73
2021/10/25 09:38:03;;;;;;;;;;;10.60;99.90;;;;;;8339464;28;19925;-73
2021/10/25 09:46:35;;;;;;;;;;;10.70;99.90;;;;;;8335747;28;20268;-73
2021/10/25 09:50:41;;;;;;;;;;;10.80;99.90;;;;;;8328669;28;19925;-73
2021/10/25 09:54:55;;;;;;;;;;;10.80;99.90;;;;;;8329686;28;19936;-72
2021/10/25 09:59:08;;;;;;;;;;;10.80;99.90;;;;;;8373430;28;19924;-72
2021/10/25 10:03:11;;;;;;;;;;;10.90;99.90;;;;;;8333843;28;19930;-72
2021/10/25 10:07:16;;;;;;;;;;;11.00;99.90;;;;;;8328619;28;19921;-72
2021/10/25 10:11:18;;;;;;;;;;;11.10;99.90;;;;;;8335600;28;19921;-73
2021/10/25 10:15:23;;;;;;;;;;;11.10;99.90;;;;;;8323981;28;20241;-72
2021/10/25 10:19:26;;;;;;;;;;;11.10;99.90;;;;;;8342886;28;19928;-72
2021/10/25 10:23:27;;;;;;;;;;;11.10;99.90;;;;;;8331056;28;19924;-72
2021/10/25 10:27:30;;;;;;;;;;;11.10;99.90;;;;;;8329581;28;19936;-72
2021/10/25 10:31:32;;;;;;;;;;;11.10;99.90;;;;;;8333590;28;19932;-72
2021/10/25 10:35:37;;;;;;;;;;;11.20;99.90;;;;;;8332837;28;19929;-71
2021/10/25 10:39:39;;;;;;;;;;;11.20;99.90;;;;;;8334771;28;19925;-71
2021/10/25 10:43:41;;;;;;;;;;;11.30;99.90;;;;;;8320922;28;20032;-71
2021/10/25 10:47:53;;;;;;;;;;;11.40;99.90;;;;;;8320216;28;20422;-72
2021/10/25 10:52:22;;;;;;;;;;;11.50;99.90;;;;;;8309418;28;19921;-72
2021/10/25 10:56:29;;;;;;;;;;;11.50;99.90;;;;;;8306836;28;19924;-72
2021/10/25 11:00:38;;;;;;;;;;;11.60;99.90;;;;;;8317358;28;19940;-72
2021/10/25 11:04:40;;;;;;;;;;;11.60;99.90;;;;;;8312532;28;19968;-72
2021/10/25 11:08:43;;;;;;;;;;;11.80;99.90;;;;;;8325483;28;20296;-72
2021/10/25 11:12:46;;;;;;;;;;;11.90;99.90;;;;;;8325551;28;19921;-73
2021/10/25 11:17:09;;;;;;;;;;;12.10;99.90;;;;;;8345026;28;19932;-72
2021/10/25 11:21:31;;;;;;;;;;;12.10;99.90;;;;;;8327772;28;19921;-71
2021/10/25 11:25:41;;;;;;;;;;;12.10;99.90;;;;;;8321651;28;19928;-72
2021/10/25 11:29:43;;;;;;;;;;;12.10;99.90;;;;;;8327174;28;19936;-72
2021/10/25 11:33:46;;;;;;;;;;;12.10;99.90;;;;;;8318623;28;19929;-73
2021/10/25 11:37:51;;;;;;;;;;;12.10;99.90;;;;;;8306641;28;20063;-72
2021/10/25 11:41:53;;;;;;;;;;;12.10;99.90;;;;;;8303251;28;19932;-72
2021/10/25 11:45:54;;;;;;;;;;;12.20;99.90;;;;;;8301145;28;19936;-72
2021/10/25 11:50:00;;;;;;;;;;;12.30;99.90;;;;;;8308877;28;20254;-73
2021/10/25 11:54:02;;;;;;;;;;;12.30;99.90;;;;;;8311896;28;19921;-71
2021/10/25 11:58:05;;;;;;;;;;;12.40;99.90;;;;;;8343359;28;19936;-71
2021/10/25 12:02:11;;;;;;;19.15;13.65;;;12.40;99.90;;;;;;8313261;28;19935;-72
2021/10/25 12:06:18;;;;;;;23.52;15.60;;;12.40;99.90;;;;;;8310462;28;20076;-71
2021/10/25 12:10:21;;;;;;;;;;;12.40;99.90;;;;;;8309983;28;20104;-72
2021/10/25 12:14:35;;;;;;;;;;;12.40;99.90;;;;;;8316675;28;19929;-73
2021/10/25 12:18:37;;;;;;;;;;;12.40;99.90;;;;;;8309586;28;20308;-72
2021/10/25 12:22:42;;;;;;;;;;;12.50;99.90;;;;;;8313907;28;20391;-71
2021/10/25 12:26:45;;;;;;;;;;;12.50;99.90;;;;;;8322316;28;20371;-72
2021/10/25 12:30:51;;;;;;;;;;;12.60;99.90;;;;;;8327686;28;20372;-73
2021/10/25 12:34:54;;;;;;;;;;;12.70;99.90;;;;;;8329920;28;19936;-72
2021/10/25 12:38:56;;;;;;;;;;;12.80;99.90;;;;;;8321940;28;19921;-72
2021/10/25 12:43:00;;;;;;;;;;;12.90;99.90;;;;;;8326249;28;19986;-72
2021/10/25 12:47:05;;;;;;;;;;;12.90;99.90;;;;;;8324364;28;20383;-73
2021/10/25 12:51:07;;;;;;;;;;;12.90;99.90;;;;;;8319504;28;19928;-72
2021/10/25 12:55:09;;;;;;;;;;;13.00;99.90;;;;;;8325747;28;19921;-72
2021/10/25 12:59:12;;;;;;;;;;;13.00;99.90;;;;;;8300128;28;19922;-72
2021/10/25 13:03:14;;;;;;;;;;;13.00;99.90;;;;;;8306333;28;20233;-72
2021/10/25 13:07:19;;;;;;;;;;;13.00;99.90;;;;;;8317138;28;20371;-73
2021/10/25 13:11:21;;;;;;;;;;;13.10;99.90;;;;;;8327053;28;19974;-73
2021/10/25 13:15:23;;;;;;;;;;;13.10;99.90;;;;;;8332523;28;19921;-74
2021/10/25 13:19:26;;;;;;;;;;;13.10;99.90;;;;;;8324020;28;19921;-73
2021/10/25 13:23:27;;;;;;;;;;;13.10;99.90;;;;;;8317288;28;20226;-73
2021/10/25 13:27:29;;;;;;;;;;;13.10;99.90;;;;;;8327984;28;19929;-73
2021/10/25 13:31:31;;;;;;;;;;;13.10;99.90;;;;;;8327843;28;19996;-74
2021/10/25 13:35:33;;;;;;;;;;;13.10;99.90;;;;;;8326158;28;19998;-73
2021/10/25 13:39:34;;;;;;;;;;;13.20;99.90;;;;;;8324032;28;19921;-73
2021/10/25 13:43:36;;;;;;;;;;;13.20;99.90;;;;;;8318620;28;19944;-73
2021/10/25 13:47:38;;;;;;;;;;;13.30;99.90;;;;;;8322455;28;19929;-73
2021/10/25 13:51:42;;;;;;;;;;;13.30;99.90;;;;;;8320847;28;21272;-73
2021/10/25 13:55:43;;;;;;;;;;;13.30;99.90;;;;;;8326417;28;19987;-74
2021/10/25 13:59:45;;;;;;;;;;;13.30;99.90;;;;;;8329652;28;19932;-73
2021/10/25 14:03:49;;;;;;;;;;;13.30;99.90;;;;;;8343344;28;19925;-73
2021/10/25 14:07:51;;;;;;;;;;;13.30;99.90;;;;;;8312118;28;19979;-73
2021/10/25 14:11:57;;;;;;;;;;;13.30;99.90;;;;;;8354815;28;19986;-73
2021/10/25 14:20:19;;;;;;;;;;;13.30;99.90;;;;;;8318804;28;19949;-73
2021/10/25 14:24:22;;;;;;;;;;;13.30;99.90;;;;;;8325139;28;19980;-73
2021/10/25 14:28:26;;;;;;;;;;;13.30;99.90;;;;;;8329743;28;19975;-73
2021/10/25 14:32:29;;;;;;;;;;;13.30;99.90;;;;;;8332290;28;20026;-73
2021/10/25 14:36:32;;;;;;;;;;;13.30;99.90;;;;;;8333461;28;19944;-73
2021/10/25 14:45:12;;;;;;;;;;;13.40;99.90;;;;;;8315359;28;19948;-73
2021/10/25 14:53:20;;;;;;;;;;;13.30;99.90;;;;;;8319049;28;20260;-73
2021/10/25 14:53:43;;;;;;;;;;;13.30;99.90;;;;;;8302706;28;20309;-73
2021/10/25 14:57:44;;;;;;;;;;;13.30;99.90;;;;;;8316021;28;20207;-74
2021/10/25 15:01:46;;;;;;;;;;;13.30;99.90;;;;;;8307971;28;19925;-73
2021/10/25 15:06:04;;;;;;;;;;;13.30;99.90;;;;;;8324234;28;19935;-73
2021/10/25 15:10:06;;;;;;;;;;;13.40;99.90;;;;;;8331214;28;19925;-73
2021/10/25 15:14:08;;;;;;;;;;;13.40;99.90;;;;;;8331964;28;19929;-73
2021/10/25 15:18:10;;;;;;;;;;;13.40;99.90;;;;;;8330845;28;19932;-73
2021/10/25 15:22:17;;;;;;;;;;;13.40;99.90;;;;;;8313162;28;19929;-73
2021/10/25 15:26:22;;;;;;;;;;;13.40;99.90;;;;;;8329404;28;20304;-73
2021/10/25 15:30:24;;;;;;;;;;;13.40;99.90;;;;;;8300170;28;19925;-73
2021/10/25 15:34:25;;;;;;;;;;;13.40;99.90;;;;;;8291280;28;20278;-73
2021/10/25 15:38:27;;;;;;;;;;;13.40;99.90;;;;;;8294697;28;19937;-73
2021/10/25 15:42:29;;;;;;;;;;;13.40;99.90;;;;;;8303325;28;19975;-73
2021/10/25 15:46:30;;;;;;;;;;;13.40;99.90;;;;;;8296745;28;19949;-73
2021/10/25 15:50:32;;;;;;;;;;;13.40;99.90;;;;;;8299398;28;19929;-73
2021/10/25 15:54:34;;;;;;;;;;;13.40;99.90;;;;;;8296667;28;20246;-73
2021/10/25 15:58:37;;;;;;;;;;;13.40;99.90;;;;;;8295574;28;19932;-73
2021/10/25 16:02:40;;;;;;;;;;;13.40;99.90;;;;;;8326748;28;19940;-74
2021/10/25 16:06:42;;;;;;;;;;;13.40;99.90;;;;;;8298476;28;19964;-74
2021/10/25 16:10:44;;;;;;;;;;;13.40;99.90;;;;;;8297449;28;19929;-73
2021/10/25 16:14:46;;;;;;;;;;;13.40;99.90;;;;;;8297994;28;19933;-73
2021/10/25 16:18:48;;;;;;;;;;;13.40;99.90;;;;;;8300754;28;19933;-73
2021/10/25 16:22:50;;;;;;;;;;;13.40;99.90;;;;;;8300207;28;19924;-73
2021/10/25 16:26:52;;;;;;;;;;;13.40;99.90;;;;;;8295478;28;20293;-73
2021/10/25 16:31:00;;;;;;;;;;;13.40;99.90;;;;;;8312751;28;19933;-74
2021/10/25 16:35:02;;;;;;;;;;;13.40;99.90;;;;;;8300956;28;19960;-73
2021/10/25 16:39:07;;;;;;;;;;;13.40;99.90;;;;;;8295822;28;19948;-73
2021/10/25 16:43:09;;;;;;;;;;;13.30;99.90;;;;;;8302803;28;19930;-74
2021/10/25 16:47:10;;;;;;;;;;;13.30;99.90;;;;;;8295897;28;19925;-73
2021/10/25 16:55:27;;;;;;;;;;;13.30;99.90;;;;;;8302537;28;19933;-73
2021/10/25 17:04:07;;;;;;;;;;;13.30;99.90;;;;;;8299038;28;19929;-73
2021/10/25 17:12:31;;;;;;;;;;;13.20;99.90;;;;;;8296325;28;19933;-73
2021/10/25 17:16:33;;;;;;;;;;;13.20;99.90;;;;;;8290414;28;20354;-73
2021/10/25 17:20:34;;;;;;;;;;;13.10;99.90;;;;;;8294373;28;19926;-73
2021/10/25 17:24:37;;;;;;;;;;;13.10;99.90;;;;;;8295262;28;19929;-74
2021/10/25 17:28:39;;;;;;;;;;;13.00;99.90;;;;;;8298881;28;19929;-73
2021/10/25 17:32:40;;;;;;;;;;;13.00;99.90;;;;;;8292089;28;20385;-73
2021/10/25 17:36:42;;;;;;;;;;;13.00;99.90;;;;;;8312272;28;19925;-74
2021/10/25 17:40:49;;;;;;;;;;;13.00;99.90;;;;;;8293389;28;19979;-74
2021/10/25 17:44:51;;;;;;;;;;;12.90;99.90;;;;;;8291697;28;19948;-73
2021/10/25 17:48:55;;;;;;;;;;;12.80;99.90;;;;;;8282718;28;20008;-73
2021/10/25 17:52:57;;;;;;;;;;;12.80;99.90;;;;;;8298424;28;20666;-73
2021/10/25 17:57:03;;;;;;;;;;;12.70;99.90;;;;;;8295673;28;19936;-73
2021/10/25 18:01:04;;;;;;;;;;;12.70;99.90;;;;;;8298300;28;19944;-74
2021/10/25 18:05:11;;;;;;;;;;;12.70;99.90;;;;;;8295312;28;19948;-73
2021/10/25 18:09:13;;;;;;;;;;;12.70;99.90;;;;;;8304166;28;20620;-73
2021/10/25 18:13:15;;;;;;;;;;;12.70;99.90;;;;;;8311269;28;19937;-73
2021/10/25 18:17:17;;;;;;;;;;;12.70;99.90;;;;;;8299039;28;19935;-74
2021/10/25 18:21:21;;;;;;;;;;;12.70;99.90;;;;;;8294275;28;20373;-74
2021/10/25 18:25:22;;;;;;;;;;;12.70;99.90;;;;;;8292710;28;19926;-73
2021/10/25 18:29:24;;;;;;;;;;;12.60;99.90;;;;;;8288761;28;19925;-73
2021/10/25 18:33:27;;;;;;;;;;;12.60;99.90;;;;;;8300563;28;20348;-74
2021/10/25 18:37:28;;;;;;;;;;;12.50;99.90;;;;;;8300031;28;19934;-73
2021/10/25 18:41:31;;;;;;;;;;;12.50;99.90;;;;;;8305388;28;19940;-73
2021/10/25 18:45:34;;;;;;;;;;;12.50;99.90;;;;;;8295588;28;19933;-74
2021/10/25 18:49:36;;;;;;;;;;;12.50;99.90;;;;;;8292230;28;19926;-73
2021/10/25 18:53:38;;;;;;;;;;;12.50;99.90;;;;;;8305453;28;19926;-73
2021/10/25 18:57:40;;;;;;;;;;;12.50;99.90;;;;;;8309639;28;19983;-73
2021/10/25 19:01:42;;;;;;;;;;;12.40;99.90;;;;;;8317646;28;19933;-73
2021/10/25 19:05:45;;;;;;;;;;;12.50;99.90;;;;;;8301004;28;19933;-73
2021/10/25 19:10:08;;;;;;;;;;;12.50;99.90;;;;;;8303587;28;20344;-73
2021/10/25 19:14:16;;;;;;;;;;;12.50;99.90;;;;;;8308749;28;19934;-73
2021/10/25 19:18:17;;;;;;;;;;;12.50;99.90;;;;;;8290404;28;19992;-73
2021/10/25 19:22:19;;;;;;;;;;;12.50;99.90;;;;;;8324884;28;19956;-73
2021/10/25 19:26:21;;;;;;;;;;;12.50;99.90;;;;;;8307956;28;19981;-73
2021/10/25 19:30:23;;;;;;;;;;;12.50;99.90;;;;;;8292096;28;20399;-73
2021/10/25 19:34:24;;;;;;;;;;;12.40;99.90;;;;;;8291653;28;20369;-73
2021/10/25 19:38:26;;;;;;;;;;;12.40;99.90;;;;;;8291200;28;19932;-73
2021/10/25 19:42:28;;;;;;;;;;;12.40;99.90;;;;;;8307660;28;20002;-73
2021/10/25 19:46:32;;;;;;;;;;;12.40;99.90;;;;;;8289659;28;19929;-73
2021/10/25 19:50:34;;;;;;;;;;;12.40;99.90;;;;;;8294619;28;20016;-73
2021/10/25 19:54:35;;;;;;;;;;;12.40;99.90;;;;;;8296789;28;19952;-73
2021/10/25 19:58:37;;;;;;;;;;;12.40;99.90;;;;;;8292246;28;19925;-74
2021/10/25 20:02:39;;;;;;;;;;;12.40;99.90;;;;;;8294296;28;20312;-73
2021/10/25 20:06:41;;;;;;;;;;;12.40;99.90;;;;;;8293252;28;19930;-73
2021/10/25 20:10:43;;;;;;;;;;;12.40;99.90;;;;;;8296612;28;19929;-73
2021/10/25 20:14:45;;;;;;;;;;;12.40;99.90;;;;;;8301838;28;19932;-73
2021/10/25 20:18:46;;;;;;;;;;;12.40;99.90;;;;;;8317947;28;19925;-74
2021/10/25 20:22:48;;;;;;;;;;;12.40;99.90;;;;;;8308277;28;20344;-73
2021/10/25 20:26:51;;;;;;;;;;;12.40;99.90;;;;;;8304350;28;19937;-73
2021/10/25 20:30:52;;;;;;;;;;;12.40;99.90;;;;;;8322059;28;19929;-73
2021/10/25 20:34:57;;;;;;;;;;;12.30;99.90;;;;;;8306201;28;19929;-73
2021/10/25 20:38:58;;;;;;;;;;;12.20;99.90;;;;;;8321959;28;19930;-74
2021/10/25 20:43:00;;;;;;;;;;;12.10;99.90;;;;;;8320754;28;20409;-73
2021/10/25 20:47:02;;;;;;;;;;;12.10;99.90;;;;;;8303207;28;19933;-74
2021/10/25 20:51:04;;;;;;;;;;;12.00;99.90;;;;;;8322896;28;20036;-73
2021/10/25 20:55:06;;;;;;;;;;;12.00;99.90;;;;;;8300626;28;19925;-73
2021/10/25 20:59:09;;;;;;;;;;;11.90;99.90;;;;;;8296320;28;19925;-73
2021/10/25 21:03:11;;;;;;;;;;;11.80;99.90;;;;;;8320480;28;19929;-73
2021/10/25 21:07:12;;;;;;;;;;;11.80;99.90;;;;;;8340995;28;19947;-73
2021/10/25 21:11:14;;;;;;;;;;;11.80;99.90;;;;;;8342581;28;19933;-73
2021/10/25 21:15:16;;;;;;;;;;;11.80;99.90;;;;;;8358489;28;19975;-73
2021/10/25 21:19:18;;;;;;;;;;;11.70;99.90;;;;;;8334571;28;19932;-73
2021/10/25 21:23:20;;;;;;;;;;;11.70;99.90;;;;;;8320918;28;19926;-73
2021/10/25 21:27:22;;;;;;;;;;;11.70;99.90;;;;;;8334027;28;20012;-73
2021/10/25 21:31:23;;;;;;;;;;;11.70;99.90;;;;;;8344749;28;19925;-73
2021/10/25 21:35:25;;;;;;;;;;;11.70;99.90;;;;;;8349414;28;19932;-73
2021/10/25 21:39:27;;;;;;;;;;;11.80;99.90;;;;;;8355155;28;19929;-74
2021/10/25 21:43:29;;;;;;;;;;;11.80;99.90;;;;;;8342854;28;19940;-73
2021/10/25 21:47:31;;;;;;;;;;;11.80;99.90;;;;;;8330481;28;20362;-73
2021/10/25 21:51:32;;;;;;;;;;;11.80;99.90;;;;;;8341369;28;19932;-73
2021/10/25 21:55:34;;;;;;;;;;;11.90;99.90;;;;;;8337350;28;20012;-73
2021/10/25 21:59:36;;;;;;;;;;;11.90;99.90;;;;;;8350328;28;20288;-73
2021/10/25 22:03:38;;;;;;;;;;;12.00;99.90;;;;;;8348608;28;20445;-73
2021/10/25 22:07:40;;;;;;;;;;;12.00;99.90;;;;;;8347350;28;19933;-73
2021/10/25 22:11:59;;;;;;;;;;;12.00;99.90;;;;;;8349266;28;20074;-74
2021/10/25 22:16:01;;;;;;;;;;;11.90;99.90;;;;;;8350516;28;20499;-73
2021/10/25 22:20:04;;;;;;;;;;;12.00;99.90;;;;;;8348016;28;19930;-74
2021/10/25 22:24:07;;;;;;;;;;;12.00;99.90;;;;;;8342891;28;19932;-73
2021/10/25 22:28:10;;;;;;;;;;;12.00;99.90;;;;;;8342265;28;20296;-74
2021/10/25 22:32:12;;;;;;;;;;;12.00;99.90;;;;;;8338780;28;19936;-73
2021/10/25 22:36:14;;;;;;;;;;;12.00;99.90;;;;;;8356240;28;19937;-73
2021/10/25 22:40:16;;;;;;;;;;;12.00;99.90;;;;;;8330697;28;20301;-73
2021/10/25 22:44:18;;;;;;;;;;;12.10;99.90;;;;;;8330644;28;19929;-74
2021/10/25 22:48:20;;;;;;;;;;;12.10;99.90;;;;;;8331235;28;20141;-73
2021/10/25 22:52:25;;;;;;;;;;;12.10;99.90;;;;;;8337877;28;19929;-74
2021/10/25 22:56:27;;;;;;;;;;;12.00;99.90;;;;;;8334597;28;19990;-73
2021/10/25 23:00:28;;;;;;;;;;;12.00;99.90;;;;;;8330734;28;19983;-73
2021/10/25 23:04:30;;;;;;;;;;;12.10;99.90;;;;;;8335136;28;20402;-73
2021/10/25 23:08:32;;;;;;;;;;;12.10;99.90;;;;;;8343354;28;20584;-74
2021/10/25 23:12:34;;;;;;;;;;;12.10;99.90;;;;;;8343968;28;19933;-73
2021/10/25 23:16:35;;;;;;;;;;;12.10;99.90;;;;;;8341476;28;19925;-73
2021/10/25 23:20:37;;;;;;;;;;;12.10;99.90;;;;;;8332462;28;19926;-73
2021/10/25 23:24:39;;;;;;;;;;;12.10;99.90;;;;;;8332261;28;19925;-73
2021/10/25 23:28:40;;;;;;;;;;;12.20;99.90;;;;;;8334227;28;19932;-73
2021/10/25 23:32:42;;;;;;;;;;;12.20;99.90;;;;;;8341616;28;19929;-73
2021/10/25 23:36:44;;;;;;;;;;;12.20;99.90;;;;;;8343262;28;19955;-73
2021/10/25 23:40:49;;;;;;;;;;;12.20;99.90;;;;;;8347115;28;19931;-73
2021/10/25 23:44:51;;;;;;;;;;;12.20;99.90;;;;;;8343634;28;19978;-73
2021/10/25 23:48:53;;;;;;;;;;;12.20;99.90;;;;;;8355327;28;20331;-73
2021/10/25 23:52:54;;;;;;;;;;;12.20;99.90;;;;;;8343538;28;19925;-73
2021/10/25 23:56:56;;;;;;;;;;;12.20;99.90;;;;;;8343558;28;19924;-74
